createdAt,value
2018-12-15T00:01:50.334Z,27.20
2018-12-15T00:04:18.932Z,26.67
2018-12-15T00:06:47.534Z,27.63
2018-12-15T00:09:16.462Z,27.80
2018-12-15T00:11:45.052Z,28.07
2018-12-15T00:14:13.672Z,28.50
2018-12-15T00:16:42.309Z,30.73
2018-12-15T00:19:10.961Z,27.87
2018-12-15T00:21:39.782Z,27.87
2018-12-15T00:24:08.398Z,27.20
2018-12-15T00:26:36.951Z,26.03
2018-12-15T00:29:05.561Z,29.37
2018-12-15T00:31:34.140Z,29.27
2018-12-15T00:34:02.956Z,25.73
2018-12-15T00:36:31.506Z,26.17
2018-12-15T00:39:00.065Z,25.60
2018-12-15T00:41:28.710Z,25.23
2018-12-15T00:43:57.560Z,25.23
2018-12-15T00:46:26.114Z,26.27
2018-12-15T00:48:55.007Z,25.63
2018-12-15T00:51:23.556Z,25.43
2018-12-15T00:53:52.178Z,24.03
2018-12-15T00:56:20.803Z,24.93
2018-12-15T00:58:49.388Z,25.80
2018-12-15T01:01:17.945Z,23.63
2018-12-15T01:03:46.732Z,24.87
2018-12-15T01:06:15.284Z,26.17
2018-12-15T01:08:43.920Z,25.53
2018-12-15T01:11:12.502Z,25.33
2018-12-15T01:13:41.099Z,23.83
2018-12-15T01:16:09.624Z,24.03
2018-12-15T01:18:38.453Z,25.60
2018-12-15T01:21:06.986Z,23.63
2018-12-15T01:23:35.843Z,24.03
2018-12-15T01:26:04.492Z,25.27
2018-12-15T01:28:33.232Z,25.60
2018-12-15T01:31:01.861Z,25.47
2018-12-15T01:33:30.600Z,25.27
2018-12-15T01:35:59.151Z,23.80
2018-12-15T01:38:27.865Z,23.93
2018-12-15T01:40:56.461Z,20.10
2018-12-15T01:43:25.365Z,20.77
2018-12-15T01:45:53.952Z,21.27
2018-12-15T01:48:22.554Z,19.80
2018-12-15T01:50:51.119Z,19.27
2018-12-15T01:53:19.931Z,19.13
2018-12-15T01:55:48.475Z,20.47
2018-12-15T01:58:17.391Z,17.93
2018-12-15T02:00:45.930Z,17.47
2018-12-15T02:03:14.886Z,16.47
2018-12-15T02:05:43.439Z,16.67
2018-12-15T02:08:12.260Z,16.97
2018-12-15T02:10:40.820Z,16.87
2018-12-15T02:13:09.464Z,16.13
2018-12-15T02:15:38.009Z,18.00
2018-12-15T02:18:06.908Z,16.30
2018-12-15T02:20:35.469Z,16.77
2018-12-15T02:23:04.148Z,16.07
2018-12-15T02:25:32.747Z,14.93
2018-12-15T02:28:01.564Z,15.83
2018-12-15T02:30:30.156Z,15.87
2018-12-15T02:32:59.180Z,15.57
2018-12-15T02:35:27.745Z,15.90
2018-12-15T02:37:56.742Z,15.63
2018-12-15T02:40:25.398Z,15.87
2018-12-15T02:42:53.972Z,15.87
2018-12-15T02:45:22.676Z,16.33
2018-12-15T02:47:51.633Z,15.20
2018-12-15T02:50:20.260Z,15.13
2018-12-15T02:52:48.824Z,15.03
2018-12-15T02:55:17.395Z,14.93
2018-12-15T02:57:46.125Z,14.63
2018-12-15T03:00:14.707Z,14.23
2018-12-15T03:02:43.424Z,15.17
2018-12-15T03:05:12.107Z,15.47
2018-12-15T03:07:40.839Z,15.27
2018-12-15T03:10:09.524Z,15.67
2018-12-15T03:12:38.417Z,14.90
2018-12-15T03:15:07.052Z,15.13
2018-12-15T03:17:35.677Z,15.30
2018-12-15T03:20:04.499Z,15.27
2018-12-15T03:22:33.306Z,14.97
2018-12-15T03:25:01.834Z,15.30
2018-12-15T03:27:30.422Z,16.20
2018-12-15T03:29:59.063Z,15.33
2018-12-15T03:32:27.708Z,15.50
2018-12-15T03:34:56.300Z,15.23
2018-12-15T03:37:25.224Z,14.63
2018-12-15T03:39:53.924Z,15.07
2018-12-15T03:42:22.483Z,15.93
2018-12-15T03:44:51.048Z,14.13
2018-12-15T03:47:19.638Z,15.17
2018-12-15T03:49:48.195Z,14.30
2018-12-15T03:52:16.779Z,14.83
2018-12-15T03:54:45.346Z,14.80
2018-12-15T03:57:14.123Z,14.93
2018-12-15T03:59:42.915Z,14.00
2018-12-15T04:02:12.025Z,13.47
2018-12-15T04:04:40.890Z,15.50
2018-12-15T04:07:09.718Z,15.80
2018-12-15T04:09:38.368Z,14.83
2018-12-15T04:12:07.147Z,13.67
2018-12-15T04:14:35.720Z,14.67
2018-12-15T04:17:04.417Z,15.77
2018-12-15T04:19:32.994Z,15.50
2018-12-15T04:22:12.735Z,14.90
2018-12-15T04:24:41.352Z,16.20
2018-12-15T04:27:10.003Z,14.77
2018-12-15T04:29:38.605Z,14.60
2018-12-15T04:32:07.189Z,13.30
2018-12-15T04:34:35.743Z,13.00
2018-12-15T04:37:04.396Z,13.27
2018-12-15T04:39:32.935Z,13.77
2018-12-15T04:42:01.702Z,14.30
2018-12-15T04:44:30.358Z,13.50
2018-12-15T04:46:59.315Z,13.83
2018-12-15T04:49:27.909Z,14.27
2018-12-15T04:51:56.768Z,13.80
2018-12-15T04:54:25.324Z,13.90
2018-12-15T04:56:53.918Z,13.53
2018-12-15T04:59:22.472Z,13.20
2018-12-15T05:01:51.042Z,15.43
2018-12-15T05:04:20.489Z,14.07
2018-12-15T05:06:49.332Z,12.70
2018-12-15T05:09:17.894Z,12.73
2018-12-15T05:11:46.693Z,13.23
2018-12-15T05:14:15.231Z,12.90
2018-12-15T05:16:43.841Z,13.73
2018-12-15T05:19:12.405Z,13.20
2018-12-15T05:21:41.027Z,12.13
2018-12-15T05:24:09.586Z,13.67
2018-12-15T05:26:38.324Z,14.17
2018-12-15T05:29:06.881Z,14.07
2018-12-15T05:31:35.517Z,13.73
2018-12-15T05:34:04.182Z,13.00
2018-12-15T05:36:32.978Z,14.90
2018-12-15T05:39:01.522Z,13.57
2018-12-15T05:41:30.055Z,13.33
2018-12-15T05:43:58.582Z,13.83
2018-12-15T05:46:27.218Z,13.87
2018-12-15T05:48:55.786Z,14.73
2018-12-15T05:51:24.601Z,13.57
2018-12-15T05:53:53.119Z,14.37
2018-12-15T05:56:21.963Z,14.13
2018-12-15T05:58:50.474Z,14.50
2018-12-15T06:01:19.287Z,13.60
2018-12-15T06:03:47.828Z,12.77
2018-12-15T06:06:16.646Z,13.20
2018-12-15T06:08:45.170Z,14.20
2018-12-15T06:11:14.142Z,13.23
2018-12-15T06:13:42.720Z,13.83
2018-12-15T06:16:11.442Z,13.97
2018-12-15T06:18:40.005Z,13.30
2018-12-15T06:21:08.695Z,14.63
2018-12-15T06:23:37.238Z,15.07
2018-12-15T06:26:05.801Z,13.53
2018-12-15T06:28:34.447Z,14.97
2018-12-15T06:31:03.332Z,13.63
2018-12-15T06:33:32.021Z,14.53
2018-12-15T06:36:00.591Z,14.13
2018-12-15T06:38:29.187Z,13.40
2018-12-15T06:40:57.753Z,12.67
2018-12-15T06:43:26.704Z,12.97
2018-12-15T06:45:55.762Z,12.80
2018-12-15T06:48:24.334Z,13.00
2018-12-15T06:50:53.051Z,13.40
2018-12-15T06:53:21.576Z,12.83
2018-12-15T06:55:50.352Z,13.00
2018-12-15T06:58:18.922Z,13.37
2018-12-15T07:00:47.496Z,12.57
2018-12-15T07:03:16.171Z,13.23
2018-12-15T07:05:45.091Z,12.83
2018-12-15T07:08:14.529Z,12.17
2018-12-15T07:10:43.163Z,12.27
2018-12-15T07:13:11.706Z,10.37
2018-12-15T07:15:40.586Z,11.70
2018-12-15T07:18:09.206Z,11.67
2018-12-15T07:20:37.894Z,11.90
2018-12-15T07:23:06.525Z,12.13
2018-12-15T07:25:35.496Z,11.70
2018-12-15T07:28:04.143Z,11.57
2018-12-15T07:30:33.144Z,11.57
2018-12-15T07:33:01.781Z,12.17
2018-12-15T07:35:30.657Z,9.90
2018-12-15T07:37:59.418Z,10.37
2018-12-15T07:40:28.139Z,9.77
2018-12-15T07:42:56.798Z,9.47
2018-12-15T07:45:25.713Z,9.97
2018-12-15T07:47:54.307Z,10.80
2018-12-15T07:50:23.177Z,12.57
2018-12-15T07:52:51.830Z,9.57
2018-12-15T07:55:20.540Z,9.97
2018-12-15T07:57:49.347Z,9.50
2018-12-15T08:00:18.031Z,9.20
2018-12-15T08:02:46.854Z,9.07
2018-12-15T08:05:15.586Z,8.20
2018-12-15T08:07:44.282Z,8.47
2018-12-15T08:10:15.364Z,6.93
2018-12-15T08:12:44.133Z,6.57
2018-12-15T08:15:12.865Z,7.00
2018-12-15T08:17:41.543Z,6.77
2018-12-15T08:20:10.733Z,5.80
2018-12-15T08:22:39.425Z,5.97
2018-12-15T08:25:08.525Z,6.20
2018-12-15T08:27:37.184Z,6.87
2018-12-15T08:30:08.039Z,7.53
2018-12-15T08:32:36.692Z,7.73
2018-12-15T08:35:05.783Z,7.40
2018-12-15T08:37:34.621Z,8.03
2018-12-15T08:40:03.613Z,9.47
2018-12-15T08:42:32.236Z,8.97
2018-12-15T08:45:00.837Z,9.20
2018-12-15T08:47:29.446Z,7.60
2018-12-15T08:49:58.302Z,8.13
2018-12-15T08:52:26.942Z,7.70
2018-12-15T08:54:55.548Z,8.27
2018-12-15T08:57:25.705Z,7.53
2018-12-15T08:59:55.083Z,7.63
2018-12-15T09:02:23.766Z,7.80
2018-12-15T09:04:52.543Z,8.73
2018-12-15T09:07:21.216Z,7.83
2018-12-15T09:09:49.970Z,8.83
2018-12-15T09:12:18.544Z,8.80
2018-12-15T09:14:47.124Z,8.20
2018-12-15T09:17:15.787Z,8.10
2018-12-15T09:19:44.423Z,8.03
2018-12-15T09:22:13.040Z,9.07
2018-12-15T09:24:41.977Z,9.50
2018-12-15T09:27:10.519Z,7.90
2018-12-15T09:29:39.109Z,7.87
2018-12-15T09:32:07.942Z,8.00
2018-12-15T09:34:36.844Z,7.50
2018-12-15T09:37:05.528Z,7.37
2018-12-15T09:39:34.201Z,8.17
2018-12-15T09:42:02.931Z,8.23
2018-12-15T09:44:31.714Z,8.73
2018-12-15T09:47:00.583Z,9.17
2018-12-15T09:49:29.425Z,8.67
2018-12-15T09:51:58.014Z,9.50
2018-12-15T09:54:26.868Z,9.20
2018-12-15T09:56:55.391Z,8.93
2018-12-15T09:59:24.243Z,9.27
2018-12-15T10:01:52.769Z,9.37
2018-12-15T10:04:21.442Z,9.83
2018-12-15T10:06:51.046Z,8.97
2018-12-15T10:09:20.283Z,9.90
2018-12-15T10:11:49.000Z,9.43
2018-12-15T10:14:17.795Z,9.13
2018-12-15T10:16:46.435Z,9.63
2018-12-15T10:19:15.198Z,11.07
2018-12-15T10:21:43.849Z,9.60
2018-12-15T10:24:12.467Z,9.33
2018-12-15T10:26:41.052Z,10.13
2018-12-15T10:29:13.896Z,9.97
2018-12-15T10:31:47.731Z,9.00
2018-12-15T10:34:16.741Z,9.30
2018-12-15T10:36:45.531Z,10.00
2018-12-15T10:39:14.241Z,9.63
2018-12-15T10:41:42.801Z,10.77
2018-12-15T10:44:11.713Z,10.30
2018-12-15T10:46:40.398Z,9.37
2018-12-15T10:49:09.386Z,9.03
2018-12-15T10:51:38.084Z,8.63
2018-12-15T10:54:06.757Z,9.07
2018-12-15T10:56:35.341Z,8.67
2018-12-15T10:59:04.045Z,9.47
2018-12-15T11:01:32.648Z,9.97
2018-12-15T11:04:01.366Z,9.80
2018-12-15T11:06:29.902Z,9.03
2018-12-15T11:08:58.590Z,9.17
2018-12-15T11:11:27.250Z,11.10
2018-12-15T11:13:56.822Z,10.17
2018-12-15T11:16:25.568Z,12.03
2018-12-15T11:18:54.387Z,10.57
2018-12-15T11:21:23.051Z,10.20
2018-12-15T11:23:52.095Z,10.70
2018-12-15T11:26:20.671Z,9.80
2018-12-15T11:28:49.551Z,8.93
2018-12-15T11:31:18.378Z,9.47
2018-12-15T11:33:46.950Z,9.03
2018-12-15T11:36:15.496Z,10.90
2018-12-15T11:38:44.424Z,9.93
2018-12-15T11:41:13.066Z,9.37
2018-12-15T11:43:41.902Z,9.87
2018-12-15T11:46:10.566Z,8.43
2018-12-15T11:48:39.277Z,7.97
2018-12-15T11:51:07.834Z,8.30
2018-12-15T11:53:36.648Z,8.43
2018-12-15T11:56:05.513Z,8.70
2018-12-15T11:58:34.459Z,8.40
2018-12-15T12:01:03.092Z,9.00
2018-12-15T12:03:31.998Z,9.23
2018-12-15T12:06:00.650Z,8.33
2018-12-15T12:08:29.555Z,9.53
2018-12-15T12:10:58.194Z,9.13
2018-12-15T12:13:27.224Z,9.83
2018-12-15T12:15:56.124Z,8.67
2018-12-15T12:18:25.001Z,8.20
2018-12-15T12:20:53.602Z,9.10
2018-12-15T12:23:22.180Z,8.83
2018-12-15T12:25:50.777Z,9.63
2018-12-15T12:28:19.723Z,9.37
2018-12-15T12:30:48.351Z,8.80
2018-12-15T12:33:17.676Z,10.00
2018-12-15T12:35:46.319Z,10.17
2018-12-15T12:38:14.932Z,9.80
2018-12-15T12:40:43.550Z,10.20
2018-12-15T12:43:12.598Z,9.43
2018-12-15T12:45:41.417Z,10.73
2018-12-15T12:48:10.301Z,9.93
2018-12-15T12:50:38.885Z,9.20
2018-12-15T12:53:07.549Z,10.30
2018-12-15T12:55:36.149Z,9.47
2018-12-15T12:58:05.202Z,9.33
2018-12-15T13:00:33.797Z,7.87
2018-12-15T13:03:02.429Z,8.80
2018-12-15T13:05:31.078Z,9.10
2018-12-15T13:08:00.032Z,8.90
2018-12-15T13:10:28.663Z,9.10
2018-12-15T13:12:57.242Z,8.97
2018-12-15T13:15:26.096Z,9.10
2018-12-15T13:17:54.739Z,9.03
2018-12-15T13:20:23.329Z,8.97
2018-12-15T13:22:52.259Z,9.50
2018-12-15T13:25:21.284Z,9.33
2018-12-15T13:27:50.011Z,9.93
2018-12-15T13:30:18.885Z,9.07
2018-12-15T13:32:47.583Z,8.50
2018-12-15T13:35:16.254Z,9.30
2018-12-15T13:37:45.027Z,9.73
2018-12-15T13:40:13.829Z,8.73
2018-12-15T13:42:42.987Z,10.30
2018-12-15T13:45:11.612Z,10.13
2018-12-15T13:47:40.496Z,10.73
2018-12-15T13:50:10.306Z,8.50
2018-12-15T13:52:39.722Z,9.70
2018-12-15T13:55:08.420Z,10.17
2018-12-15T13:57:37.191Z,10.50
2018-12-15T14:00:05.940Z,10.90
2018-12-15T14:02:34.813Z,10.73
2018-12-15T14:05:03.408Z,10.20
2018-12-15T14:07:32.321Z,10.63
2018-12-15T14:10:01.047Z,10.90
2018-12-15T14:12:29.943Z,10.40
2018-12-15T14:14:58.629Z,11.00
2018-12-15T14:17:27.351Z,11.20
2018-12-15T14:19:55.935Z,11.13
2018-12-15T14:22:24.906Z,10.47
2018-12-15T14:24:53.562Z,10.77
2018-12-15T14:27:22.597Z,11.40
2018-12-15T14:29:51.349Z,12.20
2018-12-15T14:32:20.317Z,10.97
2018-12-15T14:34:48.934Z,12.03
2018-12-15T14:37:17.885Z,11.40
2018-12-15T14:39:46.640Z,11.63
2018-12-15T14:42:15.532Z,11.17
2018-12-15T14:44:44.384Z,11.17
2018-12-15T14:47:13.300Z,12.17
2018-12-15T14:49:42.282Z,12.63
2018-12-15T14:52:11.283Z,11.40
2018-12-15T14:54:40.160Z,11.93
2018-12-15T14:57:09.093Z,10.90
2018-12-15T14:59:37.659Z,11.83
2018-12-15T15:02:06.934Z,11.00
2018-12-15T15:04:35.847Z,11.53
2018-12-15T15:07:04.719Z,11.87
2018-12-15T15:09:33.332Z,11.80
2018-12-15T15:12:01.966Z,12.03
2018-12-15T15:14:30.673Z,11.17
2018-12-15T15:16:59.332Z,12.30
2018-12-15T15:19:28.391Z,12.50
2018-12-15T15:21:57.464Z,13.80
2018-12-15T15:24:26.350Z,13.13
2018-12-15T15:26:55.443Z,12.87
2018-12-15T15:29:24.607Z,12.60
2018-12-15T15:31:53.587Z,13.60
2018-12-15T15:34:22.658Z,12.53
2018-12-15T15:36:51.467Z,12.60
2018-12-15T15:39:20.228Z,12.80
2018-12-15T15:41:49.064Z,13.37
2018-12-15T15:44:17.764Z,11.63
2018-12-15T15:46:46.707Z,13.97
2018-12-15T15:49:15.346Z,14.23
2018-12-15T15:51:44.013Z,14.57
2018-12-15T15:54:13.111Z,13.77
2018-12-15T15:56:41.992Z,12.43
2018-12-15T15:59:10.781Z,13.67
2018-12-15T16:01:39.526Z,14.10
2018-12-15T16:04:08.296Z,12.50
2018-12-15T16:06:37.401Z,13.60
2018-12-15T16:09:09.350Z,13.53
2018-12-15T16:11:38.271Z,12.47
2018-12-15T16:14:07.071Z,12.20
2018-12-15T16:16:36.279Z,12.83
2018-12-15T16:19:05.250Z,13.13
2018-12-15T16:21:38.982Z,13.37
2018-12-15T16:24:07.900Z,14.43
2018-12-15T16:26:45.971Z,12.07
2018-12-15T16:29:15.937Z,12.90
2018-12-15T16:31:45.445Z,14.13
2018-12-15T16:34:19.183Z,13.97
2018-12-15T16:36:49.955Z,13.50
2018-12-15T16:39:19.586Z,14.37
2018-12-15T16:41:48.530Z,12.53
2018-12-15T16:44:17.131Z,13.40
2018-12-15T16:46:46.056Z,12.27
2018-12-15T16:49:14.842Z,12.57
2018-12-15T16:51:43.483Z,13.97
2018-12-15T16:54:12.272Z,12.90
2018-12-15T16:56:41.227Z,14.37
2018-12-15T16:59:10.261Z,13.33
2018-12-15T17:01:39.040Z,13.57
2018-12-15T17:04:07.900Z,13.67
2018-12-15T17:06:36.518Z,13.77
2018-12-15T17:09:08.077Z,14.03
2018-12-15T17:11:36.961Z,14.00
2018-12-15T17:14:05.619Z,12.53
2018-12-15T17:16:34.839Z,14.00
2018-12-15T17:19:03.500Z,13.47
2018-12-15T17:21:32.379Z,13.67
2018-12-15T17:24:01.094Z,14.50
2018-12-15T17:26:29.841Z,12.80
2018-12-15T17:28:58.643Z,13.63
2018-12-15T17:31:27.288Z,14.40
2018-12-15T17:33:55.934Z,14.57
2018-12-15T17:36:25.053Z,14.43
2018-12-15T17:38:53.715Z,14.20
2018-12-15T17:41:22.456Z,13.53
2018-12-15T17:43:51.034Z,13.30
2018-12-15T17:46:19.832Z,15.17
2018-12-15T17:48:48.678Z,15.00
2018-12-15T17:51:17.778Z,16.30
2018-12-15T17:53:46.372Z,16.07
2018-12-15T17:56:15.023Z,16.97
2018-12-15T17:58:43.715Z,15.67
2018-12-15T18:01:12.594Z,13.13
2018-12-15T18:03:41.254Z,14.17
2018-12-15T18:06:09.898Z,13.50
2018-12-15T18:08:38.469Z,15.60
2018-12-15T18:11:07.072Z,13.37
2018-12-15T18:13:35.678Z,15.63
2018-12-15T18:16:04.587Z,16.17
2018-12-15T18:18:33.170Z,15.43
2018-12-15T18:21:02.013Z,15.57
2018-12-15T18:23:30.754Z,16.50
2018-12-15T18:25:59.713Z,17.27
2018-12-15T18:28:28.502Z,16.77
2018-12-15T18:30:57.530Z,17.00
2018-12-15T18:33:26.343Z,17.67
2018-12-15T18:35:55.182Z,17.63
2018-12-15T18:38:23.968Z,17.47
2018-12-15T18:40:54.190Z,15.83
2018-12-15T18:43:23.218Z,17.53
2018-12-15T18:45:51.922Z,18.03
2018-12-15T18:48:20.660Z,17.73
2018-12-15T18:50:49.577Z,15.97
2018-12-15T18:53:19.577Z,16.93
2018-12-15T18:55:48.516Z,17.60
2018-12-15T18:58:17.577Z,17.50
2018-12-15T19:00:46.481Z,16.23
2018-12-15T19:03:15.251Z,16.50
2018-12-15T19:05:44.093Z,17.63
2018-12-15T19:08:12.870Z,18.07
2018-12-15T19:10:42.121Z,17.47
2018-12-15T19:13:11.086Z,17.73
2018-12-15T19:15:39.745Z,18.83
2018-12-15T19:18:08.502Z,19.63
2018-12-15T19:20:37.689Z,19.03
2018-12-15T19:23:06.276Z,19.40
2018-12-15T19:25:34.939Z,21.27
2018-12-15T19:28:03.529Z,21.70
2018-12-15T19:30:32.225Z,20.87
2018-12-15T19:33:00.987Z,21.70
2018-12-15T19:35:29.803Z,22.47
2018-12-15T19:37:58.548Z,22.93
2018-12-15T19:40:29.186Z,22.90
2018-12-15T19:42:57.957Z,22.00
2018-12-15T19:45:26.749Z,22.03
2018-12-15T19:47:55.307Z,23.23
2018-12-15T19:50:24.103Z,21.87
2018-12-15T19:52:52.719Z,20.40
2018-12-15T19:55:21.344Z,20.70
2018-12-15T19:57:49.896Z,21.50
2018-12-15T20:00:18.657Z,21.30
2018-12-15T20:02:47.376Z,21.17
2018-12-15T20:05:15.993Z,22.53
2018-12-15T20:07:44.605Z,22.63
2018-12-15T20:10:13.250Z,22.50
2018-12-15T20:12:42.165Z,22.10
2018-12-15T20:15:12.133Z,22.93
2018-12-15T20:17:41.076Z,22.10
2018-12-15T20:20:10.306Z,23.47
2018-12-15T20:22:39.089Z,22.73
2018-12-15T20:25:07.952Z,24.53
2018-12-15T20:27:36.972Z,22.83
2018-12-15T20:30:06.971Z,23.57
2018-12-15T20:32:36.438Z,22.13
2018-12-15T20:35:06.243Z,22.47
2018-12-15T20:37:34.918Z,20.47
2018-12-15T20:40:03.950Z,21.13
2018-12-15T20:42:33.175Z,22.03
2018-12-15T20:45:03.213Z,21.10
2018-12-15T20:47:32.116Z,21.23
2018-12-15T20:50:02.225Z,20.80
2018-12-15T20:52:31.319Z,21.00
2018-12-15T20:55:00.660Z,20.30
2018-12-15T20:57:30.478Z,20.00
2018-12-15T20:59:59.883Z,27.57
2018-12-15T21:02:29.098Z,29.07
2018-12-15T21:04:58.382Z,26.03
2018-12-15T21:07:28.367Z,28.17
2018-12-15T21:09:57.764Z,27.30
2018-12-15T21:12:26.933Z,32.73
2018-12-15T21:14:58.198Z,30.87
2018-12-15T21:17:28.386Z,33.90
2018-12-15T21:19:57.286Z,34.70
2018-12-15T21:22:26.147Z,34.07
2018-12-15T21:24:55.291Z,30.10
2018-12-15T21:27:25.751Z,28.43
2018-12-15T21:29:54.902Z,33.30
2018-12-15T21:32:25.475Z,34.13
2018-12-15T21:34:54.895Z,35.57
2018-12-15T21:37:26.267Z,31.77
2018-12-15T21:39:55.812Z,28.27
2018-12-15T21:42:24.939Z,23.77
2018-12-15T21:44:54.324Z,29.97
2018-12-15T21:47:23.268Z,31.97
2018-12-15T21:49:52.892Z,31.90
2018-12-15T21:52:22.581Z,32.13
2018-12-15T21:54:52.948Z,29.30
2018-12-15T21:57:21.913Z,33.20
2018-12-15T21:59:51.728Z,32.87
2018-12-15T22:02:20.765Z,30.83
2018-12-15T22:04:50.186Z,28.87
2018-12-15T22:07:19.700Z,28.17
2018-12-15T22:09:48.754Z,26.90
2018-12-15T22:12:17.476Z,27.53
2018-12-15T22:14:46.364Z,26.37
2018-12-15T22:17:14.957Z,31.23
2018-12-15T22:19:43.961Z,33.00
2018-12-15T22:22:12.561Z,30.97
2018-12-15T22:24:41.717Z,33.03
2018-12-15T22:27:10.512Z,38.70
2018-12-15T22:29:39.638Z,32.97
2018-12-15T22:32:08.246Z,31.40
2018-12-15T22:34:37.095Z,36.20
2018-12-15T22:37:05.691Z,29.17
2018-12-15T22:39:34.674Z,25.83
2018-12-15T22:42:03.295Z,28.90
2018-12-15T22:44:32.071Z,27.03
2018-12-15T22:47:00.684Z,29.70
2018-12-15T22:49:29.595Z,31.03
2018-12-15T22:51:58.183Z,29.00
2018-12-15T22:54:27.132Z,28.80
2018-12-15T22:56:55.724Z,23.37
2018-12-15T22:59:24.563Z,23.87
2018-12-15T23:01:53.153Z,24.60
2018-12-15T23:04:22.241Z,22.27
2018-12-15T23:06:51.207Z,24.10
2018-12-15T23:09:19.856Z,25.23
2018-12-15T23:11:48.856Z,23.63
2018-12-15T23:14:17.495Z,25.23
2018-12-15T23:16:46.121Z,20.80
2018-12-15T23:19:14.983Z,20.27
2018-12-15T23:21:43.563Z,20.77
2018-12-15T23:24:12.224Z,20.17
2018-12-15T23:26:40.848Z,20.03
2018-12-15T23:29:09.693Z,21.03
2018-12-15T23:31:38.286Z,20.20
2018-12-15T23:34:07.185Z,19.93
2018-12-15T23:36:35.776Z,19.43
2018-12-15T23:39:07.016Z,21.47
2018-12-15T23:41:35.671Z,20.70
2018-12-15T23:44:04.739Z,20.73
2018-12-15T23:46:33.338Z,20.13
2018-12-15T23:49:02.244Z,19.90
2018-12-15T23:51:30.818Z,20.70
2018-12-15T23:53:59.432Z,21.03
2018-12-15T23:56:28.051Z,21.33
2018-12-15T23:58:57.062Z,20.70
